Weather at Alstar North Heliport

Public forecast

Using degrees Fahrenheit for public forecast. Weather courtesy of forecast.io.

Closest aviation weather report (METAR) to Alstar North Heliport

Closest report is Chautauqua County-Dunkirk Airport, 2.6 nm (4.8 km) ENE. Retrieved 2020/09/24 07:53 UTC (49 minutes ago):

KDKK 240753Z AUTO 21007KT 10SM CLR 17/13 A2995 RMK AO2 SLP140 T01670128

Closest aviation forecast (TAF) to Alstar North Heliport

Closest forecast is Chautauqua County-Jamestown Airport, 20.0 nm (37.1 km) S. Retrieved 2020/09/24 06:36 UTC (2 hours ago):

TAF KJHW 240533Z 2406/2506 21004KT P6SM BKN250 FM240800 VRB03KT 4SM BR BKN250 FM241100 VRB03KT 6SM BR BKN250 FM242300 23004KT P6SM FEW250